Time;durP1;ratioP1;P1;durP2;ratioP2;P2;SDS_P1;SDS_P2;PMS_P1;PMS_P2;Temp;Humidity;BMP_temperature;BMP_pressure;BME280_temperature;BME280_humidity;BME280_pressure;Samples;Min_cycle;Max_cycle;Signal;HPM_P1;HPM_P2
2021/12/23 04:51:27;;;;;;;;;;;;;;;0.56;82.32;97263.97;4059823;27;4156517;-69
2021/12/23 04:53:50;;;;;;;;;;;;;;;0.63;82.18;97264.34;4170740;28;5891;-67
2021/12/23 04:56:00;;;;;;;;;;;;;;;0.67;82.02;97255.34;4192989;28;5110;-67
2021/12/23 04:58:02;;;;;;;;;;;;;;;0.70;81.93;97253.34;4203639;28;5676;-68
2021/12/23 05:00:08;;;;;;;;;;;;;;;0.76;81.70;97267.63;4197355;28;5630;-68
2021/12/23 05:02:10;;;;;;;;;;;;;;;0.82;81.37;97261.97;4194591;28;5659;-68
2021/12/23 05:04:12;;;;;;;;;;;;;;;0.86;81.40;97269.38;4205037;28;5543;-68
2021/12/23 05:06:16;;;;;;;;;;;;;;;0.89;81.25;97268.31;4215433;28;5603;-68
2021/12/23 05:08:19;;;;;;;;;;;;;;;0.84;81.46;97271.28;4216053;28;5531;-68
2021/12/23 05:10:21;;;;;;;;;;;;;;;0.85;81.42;97269.50;4196596;28;5662;-68
2021/12/23 05:12:22;;;;;;;;;;;;;;;0.91;81.51;97270.78;4196556;28;5710;-68
2021/12/23 05:14:24;;;;;;;;;;;;;;;0.89;81.50;97276.13;4199159;28;5558;-68
2021/12/23 05:16:25;;;;;;;;;;;;;;;0.90;81.31;97267.38;4189805;28;5654;-68
2021/12/23 05:18:27;;;;;;;;;;;;;;;0.95;81.31;97262.63;4215954;28;5539;-68
2021/12/23 05:20:29;;;;;;;;;;;;;;;0.96;81.62;97273.88;4197381;28;5658;-67
2021/12/23 05:22:30;;;;;;;;;;;;;;;0.96;81.46;97276.47;4209751;28;5554;-68
2021/12/23 05:24:32;;;;;;;;;;;;;;;0.97;81.54;97273.75;4209103;28;5543;-68
2021/12/23 05:26:34;;;;;;;;;;;;;;;1.01;81.39;97275.16;4206183;28;5610;-68
2021/12/23 05:28:36;;;;;;;;;;;;;;;1.09;81.19;97269.34;4211903;28;5547;-69
2021/12/23 05:30:38;;;;;;;;;;;;;;;1.15;80.92;97269.69;4212377;28;5571;-68
2021/12/23 05:32:43;;;;;;;;;;;;;;;0.97;82.16;97265.94;4199082;28;5796;-69
2021/12/23 05:34:45;;;;;;;;;;;;;;;0.96;82.20;97272.09;4180757;28;5661;-69
2021/12/23 05:36:46;;;;;;;;;;;;;;;1.18;81.26;97266.00;4180799;28;5706;-69
2021/12/23 05:38:51;;;;;;;;;;;;;;;1.33;80.73;97261.31;4198926;28;5570;-69
2021/12/23 05:40:52;;;;;;;;;;;;;;;1.40;80.69;97260.72;4181238;28;6321;-68
2021/12/23 05:42:54;;;;;;;;;;;;;;;1.48;80.53;97257.50;4198974;28;5690;-69
2021/12/23 05:44:56;;;;;;;;;;;;;;;1.51;80.44;97262.44;4198726;28;5725;-69
2021/12/23 05:46:58;;;;;;;;;;;;;;;1.48;80.50;97267.09;4201940;28;5559;-69
2021/12/23 05:49:00;;;;;;;;;;;;;;;1.47;80.72;97261.03;4207898;28;5546;-69
2021/12/23 05:51:02;;;;;;;;;;;;;;;1.52;80.48;97258.88;4194185;28;5643;-68
2021/12/23 05:53:04;;;;;;;;;;;;;;;1.54;80.69;97250.94;4195310;28;5628;-68
2021/12/23 05:55:08;;;;;;;;;;;;;;;1.56;80.41;97260.28;4195141;28;5661;-69
2021/12/23 05:57:10;;;;;;;;;;;;;;;1.58;80.44;97260.97;4192229;28;5684;-68
2021/12/23 05:59:11;;;;;;;;;;;;;;;1.60;80.47;97260.88;4179237;28;5662;-68
2021/12/23 06:01:15;;;;;;;;;;;;;;;1.59;80.68;97267.03;4195523;28;6262;-68
2021/12/23 06:03:17;;;;;;;;;;;;;;;1.59;80.46;97262.66;4193028;28;5635;-68
2021/12/23 06:05:20;;;;;;;;;;;;;;;1.56;80.76;97260.28;4198508;28;5714;-68
2021/12/23 06:07:22;;;;;;;;;;;;;;;1.50;81.62;97254.75;4195108;28;6486;-69
2021/12/23 06:09:23;;;;;;;;;;;;;;;1.37;81.92;97260.97;4150681;28;5773;-68
2021/12/23 06:11:25;;;;;;;;;;;;;;;1.56;80.83;97255.06;4189722;28;5770;-68
2021/12/23 06:13:30;;;;;;;;;;;;;;;1.70;80.52;97256.56;4196857;28;5635;-68
2021/12/23 06:15:31;;;;;;;;;;;;;;;1.78;80.58;97254.13;4202529;28;5652;-68
2021/12/23 06:17:34;;;;;;;;;;;;;;;1.57;81.21;97256.72;4200007;28;5691;-68
2021/12/23 06:19:36;;;;;;;;;;;;;;;1.63;81.18;97263.22;4200971;28;5635;-68
2021/12/23 06:21:38;;;;;;;;;;;;;;;1.74;80.57;97253.56;4203235;28;5647;-68
2021/12/23 06:23:39;;;;;;;;;;;;;;;1.83;80.23;97256.38;4196957;28;5654;-68
2021/12/23 06:25:42;;;;;;;;;;;;;;;1.83;80.28;97256.38;4180129;28;5828;-67
2021/12/23 06:27:46;;;;;;;;;;;;;;;1.88;80.00;97269.84;4202937;28;5747;-68
2021/12/23 06:29:48;;;;;;;;;;;;;;;1.89;79.80;97255.84;4193458;28;5650;-70
2021/12/23 06:31:49;;;;;;;;;;;;;;;1.86;80.02;97259.53;4201728;28;6307;-71
2021/12/23 06:33:51;;;;;;;;;;;;;;;1.82;79.99;97259.94;4190785;28;5787;-69
2021/12/23 06:35:52;;;;;;;;;;;;;;;1.75;80.51;97270.84;4173579;28;5697;-74
2021/12/23 06:38:02;;;;;;;;;;;;;;;1.76;80.62;97269.06;4198063;28;5850;-74
2021/12/23 06:40:04;;;;;;;;;;;;;;;1.77;80.36;97265.50;4198833;28;5635;-73
2021/12/23 06:42:07;;;;;;;;;;;;;;;1.70;80.60;97270.41;4179979;28;5837;-73
2021/12/23 06:44:08;;;;;;;;;;;;;;;1.66;80.94;97276.81;4203294;28;5635;-74
2021/12/23 06:46:10;;;;;;;;;;;;;;;1.71;80.88;97279.91;4185849;28;5654;-75
2021/12/23 06:48:12;;;;;;;;;;;;;;;1.72;80.71;97284.16;4185411;28;5663;-74
2021/12/23 06:50:16;;;;;;;;;;;;;;;1.73;80.71;97277.16;4185139;28;5710;-74
2021/12/23 06:52:18;;;;;;;;;;;;;;;1.74;80.54;97276.19;4203408;28;5531;-74
2021/12/23 06:54:20;;;;;;;;;;;;;;;1.73;80.88;97272.78;4203423;28;5536;-74
2021/12/23 06:56:21;;;;;;;;;;;;;;;1.73;80.78;97277.97;4185640;28;5642;-73
2021/12/23 06:58:24;;;;;;;;;;;;;;;1.69;80.88;97271.34;4203396;28;5726;-74
2021/12/23 07:00:28;;;;;;;;;;;;;;;1.71;80.77;97274.69;4185265;28;5635;-73
2021/12/23 07:02:31;;;;;;;;;;;;;;;1.72;80.74;97267.69;4166733;28;5665;-74
2021/12/23 07:04:34;;;;;;;;;;;;;;;1.67;81.18;97275.03;4184335;28;5710;-74
2021/12/23 07:06:37;;;;;;;;;;;;;;;1.61;81.23;97273.78;4203375;28;5531;-75
2021/12/23 07:08:39;;;;;;;;;;;;;;;1.66;81.20;97273.38;4203296;28;5642;-73
2021/12/23 07:10:40;;;;;;;;;;;;;;;1.66;81.31;97274.22;4192650;28;5555;-73
2021/12/23 07:12:42;;;;;;;;;;;;;;;1.69;80.98;97280.94;4185792;28;5562;-71
2021/12/23 07:14:44;;;;;;;;;;;;;;;1.74;80.97;97265.78;4197844;28;5674;-70
2021/12/23 07:16:45;;;;;;;;;;;;;;;1.63;82.03;97268.44;4160035;28;5685;-71
2021/12/23 07:18:47;;;;;;;;;;;;;;;1.66;81.45;97269.00;4184823;28;5638;-71
2021/12/23 07:20:48;;;;;;;;;;;;;;;1.74;80.89;97258.78;4182140;28;5770;-71
2021/12/23 07:22:51;;;;;;;;;;;;;;;1.75;81.01;97260.44;4186320;28;5558;-71
2021/12/23 07:24:52;;;;;;;;;;;;;;;1.65;81.63;97262.13;4185834;28;5559;-71
2021/12/23 07:26:54;;;;;;;;;;;;;;;1.61;81.59;97272.94;4197194;28;5555;-73
2021/12/23 07:28:55;;;;;;;;;;;;;;;1.66;81.29;97269.00;4202785;28;5535;-72
2021/12/23 07:30:57;;;;;;;;;;;;;;;1.58;81.50;97268.78;4179922;28;5690;-72
2021/12/23 07:33:00;;;;;;;;;;;;;;;1.80;80.67;97267.84;4183961;28;5977;-72
2021/12/23 07:35:04;;;;;;;;;;;;;;;1.87;80.40;97273.41;4202744;28;5544;-71
2021/12/23 07:37:10;;;;;;;;;;;;;;;1.90;80.39;97286.19;4202183;28;5559;-70
2021/12/23 07:39:13;;;;;;;;;;;;;;;1.88;79.90;97278.47;4202430;28;5602;-73
2021/12/23 07:41:35;;;;;;;;;;;;;;;1.77;79.98;97269.91;4202900;28;5540;-72
2021/12/23 07:45:39;;;;;;;;;;;;;;;1.78;80.03;97269.78;4192467;28;5771;-71
2021/12/23 07:47:40;;;;;;;;;;;;;;;1.78;79.93;97268.94;4202457;28;5615;-71
2021/12/23 07:49:42;;;;;;;;;;;;;;;1.73;80.06;97270.16;4202207;28;5736;-71
2021/12/23 07:51:44;;;;;;;;;;;;;;;1.80;79.69;97280.06;4201304;28;5660;-72
2021/12/23 07:53:46;;;;;;;;;;;;;;;1.83;79.63;97274.63;4167385;28;5669;-72
2021/12/23 07:55:47;;;;;;;;;;;;;;;1.74;79.83;97284.03;4202252;28;5671;-72
2021/12/23 07:57:49;;;;;;;;;;;;;;;1.70;80.13;97278.25;4202965;28;5706;-71
2021/12/23 07:59:51;;;;;;;;;;;;;;;1.65;80.35;97285.59;4171861;28;5664;-72
2021/12/23 08:01:57;;;;;;;;;;;;;;;1.51;81.66;97280.69;4187634;28;6322;-72
2021/12/23 08:04:00;;;;;;;;;;;;;;;1.42;81.45;97274.44;4188044;28;5658;-71
2021/12/23 08:06:02;;;;;;;;;;;;;;;1.61;80.94;97275.56;4207860;28;5639;-71
2021/12/23 08:08:03;;;;;;;;;;;;;;;1.69;80.81;97286.16;4182791;28;5724;-71
2021/12/23 08:10:06;;;;;;;;;;;;;;;1.71;80.56;97284.28;4155922;28;5671;-71
2021/12/23 08:12:08;;;;;;;;;;;;;;;1.65;81.00;97284.78;4168414;28;5139;-72
2021/12/23 08:14:10;;;;;;;;;;;;;;;1.54;82.43;97288.25;4200660;28;5639;-72
2021/12/23 08:16:11;;;;;;;;;;;;;;;1.63;81.40;97282.28;4184004;28;5650;-72
2021/12/23 08:18:13;;;;;;;;;;;;;;;1.77;80.93;97288.16;4180344;28;5713;-73
2021/12/23 08:20:16;;;;;;;;;;;;;;;1.75;81.40;97290.88;4167805;28;5862;-72
2021/12/23 08:22:18;;;;;;;;;;;;;;;1.86;80.73;97290.00;4185275;28;5646;-72
2021/12/23 08:24:19;;;;;;;;;;;;;;;1.88;80.51;97301.13;4184392;28;5764;-72
2021/12/23 08:26:27;;;;;;;;;;;;;;;1.90;80.47;97291.38;4167635;28;5066;-70
2021/12/23 08:28:30;;;;;;;;;;;;;;;1.96;79.93;97288.28;4167574;28;5764;-70
2021/12/23 08:30:33;;;;;;;;;;;;;;;2.01;79.84;97288.72;4194530;28;5627;-70
2021/12/23 08:32:35;;;;;;;;;;;;;;;2.07;79.84;97287.41;4166848;28;5661;-71
2021/12/23 08:34:38;;;;;;;;;;;;;;;2.12;79.63;97287.81;4199792;28;5759;-71
2021/12/23 08:36:40;;;;;;;;;;;;;;;1.95;79.85;97292.69;4190935;28;5770;-71
2021/12/23 08:38:42;;;;;;;;;;;;;;;1.95;79.95;97289.25;4185525;28;5643;-71
2021/12/23 08:40:44;;;;;;;;;;;;;;;1.77;80.27;97280.31;4185238;28;5698;-71
2021/12/23 08:42:47;;;;;;;;;;;;;;;2.12;79.42;97283.44;4172905;28;5646;-71
2021/12/23 08:44:48;;;;;;;;;;;;;;;2.36;78.89;97280.53;4162528;28;5827;-71
2021/12/23 08:46:50;;;;;;;;;;;;;;;2.51;78.51;97284.47;4185622;28;5766;-71
2021/12/23 08:48:52;;;;;;;;;;;;;;;2.38;77.73;97273.44;4185575;28;5646;-70
2021/12/23 08:50:54;;;;;;;;;;;;;;;2.36;76.95;97284.94;4178670;28;5741;-71
2021/12/23 08:52:57;;;;;;;;;;;;;;;2.42;77.12;97269.59;4181220;28;5898;-71
2021/12/23 08:54:59;;;;;;;;;;;;;;;2.48;76.98;97273.44;4167192;28;5773;-70
2021/12/23 08:57:01;;;;;;;;;;;;;;;2.44;77.05;97270.28;4185722;28;5643;-71
2021/12/23 08:59:03;;;;;;;;;;;;;;;2.43;76.59;97276.47;4167713;28;5720;-71
2021/12/23 09:01:06;;;;;;;;;;;;;;;2.41;76.40;97273.16;4187410;28;5652;-71
2021/12/23 09:03:09;;;;;;;;;;;;;;;2.46;76.35;97281.41;4193859;28;5623;-71
2021/12/23 09:05:12;;;;;;;;;;;;;;;2.42;76.00;97290.47;4200719;28;5730;-71
2021/12/23 09:07:14;;;;;;;;;;;;;;;1.98;75.87;97275.94;4183894;28;5727;-71
2021/12/23 09:09:18;;;;;;;;;;;;;;;1.87;76.70;97278.63;4200713;28;6304;-70
2021/12/23 09:11:20;;;;;;;;;;;;;;;2.05;76.41;97277.09;4160639;28;5665;-70
2021/12/23 09:13:22;;;;;;;;;;;;;;;2.21;76.39;97277.44;4175837;28;5657;-70
2021/12/23 09:15:24;;;;;;;;;;;;;;;2.41;76.02;97274.94;4184923;28;5717;-71
2021/12/23 09:17:25;;;;;;;;;;;;;;;2.42;75.48;97266.16;4172151;28;5670;-71
2021/12/23 09:19:27;;;;;;;;;;;;;;;2.15;74.04;97272.75;4169711;28;5665;-71
2021/12/23 09:21:29;;;;;;;;;;;;;;;2.21;74.49;97271.41;4200688;28;5767;-71
2021/12/23 09:23:34;;;;;;;;;;;;;;;2.38;74.48;97273.44;4195737;28;5670;-71
2021/12/23 09:25:38;;;;;;;;;;;;;;;2.30;74.50;97271.47;4184536;28;6573;-72
2021/12/23 09:28:09;;;;;;;;;;;;;;;2.49;74.40;97269.88;4193447;28;6737;-71
2021/12/23 09:32:51;;;;;;;;;;;;;;;2.60;73.14;97277.63;4203779;28;5702;-71
2021/12/23 09:34:53;;;;;;;;;;;;;;;2.71;74.04;97284.53;4203178;28;5702;-71
2021/12/23 09:36:55;;;;;;;;;;;;;;;2.53;71.51;97281.72;4170206;28;5653;-71
2021/12/23 09:38:56;;;;;;;;;;;;;;;2.52;71.33;97280.06;4185671;28;5768;-71
2021/12/23 09:41:02;;;;;;;;;;;;;;;2.65;71.22;97283.28;4204419;28;5759;-71
2021/12/23 09:43:10;;;;;;;;;;;;;;;2.61;69.81;97282.72;4186400;28;5749;-71
2021/12/23 09:45:17;;;;;;;;;;;;;;;2.60;70.54;97288.06;4198260;28;5103;-71
2021/12/23 09:47:20;;;;;;;;;;;;;;;2.57;67.87;97285.72;4187628;28;7498;-71
2021/12/23 09:49:22;;;;;;;;;;;;;;;2.53;68.97;97284.34;4193978;28;5085;-71
2021/12/23 09:51:26;;;;;;;;;;;;;;;2.56;68.63;97282.28;4203766;28;7681;-71
2021/12/23 09:53:34;;;;;;;;;;;;;;;2.61;68.65;97279.28;4203264;28;5640;-71
2021/12/23 09:55:37;;;;;;;;;;;;;;;2.48;66.35;97276.06;4203462;28;5077;-71
2021/12/23 09:57:39;;;;;;;;;;;;;;;2.53;67.40;97277.31;4186133;28;7841;-71
2021/12/23 09:59:43;;;;;;;;;;;;;;;2.61;68.23;97284.50;4185298;28;5070;-71
2021/12/23 10:01:45;;;;;;;;;;;;;;;2.66;67.48;97282.31;4200167;28;5841;-71
2021/12/23 10:03:47;;;;;;;;;;;;;;;2.60;67.05;97283.69;4200440;28;5089;-71
2021/12/23 10:05:49;;;;;;;;;;;;;;;2.67;67.85;97281.34;4202238;28;7689;-71
2021/12/23 10:08:00;;;;;;;;;;;;;;;2.81;68.32;97278.38;4176816;28;7396;-71
2021/12/23 10:10:10;;;;;;;;;;;;;;;2.79;68.63;97274.25;4187569;28;5690;-71
2021/12/23 10:31:41;;;;;;;;;;;;;;;2.92;66.19;97246.94;4172020;28;5678;-71
2021/12/23 10:38:09;;;;;;;;;;;;;;;2.97;65.31;97232.66;4186428;28;5554;-71
2021/12/23 10:40:12;;;;;;;;;;;;;;;2.95;65.33;97242.44;4173346;28;5754;-71
2021/12/23 10:42:18;;;;;;;;;;;;;;;2.85;65.42;97237.19;4172623;28;5630;-71
2021/12/23 10:44:30;;;;;;;;;;;;;;;2.99;65.84;97233.34;4203250;28;5635;-71
2021/12/23 10:46:39;;;;;;;;;;;;;;;2.79;65.79;97225.47;4163444;28;5691;-71
2021/12/23 10:49:21;;;;;;;;;;;;;;;2.91;64.74;97223.56;4154299;28;5687;-71
2021/12/23 10:51:23;;;;;;;;;;;;;;;3.07;64.98;97212.59;4160956;28;5672;-71
2021/12/23 10:58:37;;;;;;;;;;;;;;;3.10;63.14;97199.28;4186581;28;5554;-70
2021/12/23 11:00:45;;;;;;;;;;;;;;;3.22;64.03;97200.78;4198568;28;5580;-71
2021/12/23 11:03:01;;;;;;;;;;;;;;;3.23;62.96;97197.19;4197398;28;5766;-71
2021/12/23 11:07:22;;;;;;;;;;;;;;;3.38;63.90;97184.53;4192710;28;5651;-71
2021/12/23 11:09:38;;;;;;;;;;;;;;;3.48;63.02;97180.13;4203434;28;5552;-71
2021/12/23 11:37:49;;;;;;;;;;;;;;;3.58;60.25;97148.75;4202221;28;5552;-72
2021/12/23 11:40:07;;;;;;;;;;;;;;;3.69;61.41;97151.19;4185301;28;5658;-71
2021/12/23 11:42:37;;;;;;;;;;;;;;;3.64;61.98;97149.03;4168214;28;5645;-71
2021/12/23 11:44:40;;;;;;;;;;;;;;;3.78;63.25;97145.13;4164055;28;6601;-71
2021/12/23 11:46:48;;;;;;;;;;;;;;;3.74;63.30;97138.53;4190897;28;6276;-70
2021/12/23 11:48:53;;;;;;;;;;;;;;;3.71;63.52;97139.63;4191068;28;5557;-71
2021/12/23 11:51:06;;;;;;;;;;;;;;;3.69;63.27;97130.28;4197940;28;5695;-71
2021/12/23 11:53:09;;;;;;;;;;;;;;;3.80;64.08;97137.97;4192608;28;5726;-71
2021/12/23 11:55:11;;;;;;;;;;;;;;;3.88;63.74;97135.47;4190981;28;6204;-71
2021/12/23 11:57:25;;;;;;;;;;;;;;;3.78;63.66;97129.44;4201481;28;5559;-71
2021/12/23 11:59:27;;;;;;;;;;;;;;;3.77;64.28;97131.22;4172622;28;5773;-71
2021/12/23 12:01:39;;;;;;;;;;;;;;;3.82;63.85;97128.19;4168491;28;5797;-71
2021/12/23 12:03:56;;;;;;;;;;;;;;;3.84;64.03;97120.19;4184965;28;5669;-71
2021/12/23 12:06:15;;;;;;;;;;;;;;;3.90;64.27;97117.81;4192253;28;5767;-71
2021/12/23 12:08:23;;;;;;;;;;;;;;;3.91;64.68;97116.88;4197252;28;5524;-71
2021/12/23 12:10:25;;;;;;;;;;;;;;;3.88;64.33;97111.09;4202018;28;5591;-71
2021/12/23 12:12:32;;;;;;;;;;;;;;;3.72;64.82;97096.00;4199115;28;5802;-71
2021/12/23 12:14:41;;;;;;;;;;;;;;;3.82;64.91;97098.59;4200000;28;5676;-71
2021/12/23 12:16:43;;;;;;;;;;;;;;;3.85;64.92;97093.91;4192243;28;5653;-71
2021/12/23 12:18:46;;;;;;;;;;;;;;;3.84;64.96;97083.56;4167739;28;5662;-71
2021/12/23 12:20:58;;;;;;;;;;;;;;;3.82;66.09;97077.66;4185628;28;5688;-71
2021/12/23 12:23:20;;;;;;;;;;;;;;;3.88;65.58;97091.00;4169559;28;5867;-71
2021/12/23 12:25:24;;;;;;;;;;;;;;;3.97;65.30;97081.47;4181165;28;5643;-71
2021/12/23 12:27:27;;;;;;;;;;;;;;;4.02;65.85;97069.59;4194807;28;5275;-71
2021/12/23 12:29:36;;;;;;;;;;;;;;;3.98;65.71;97077.88;4191168;28;7661;-71
2021/12/23 12:31:40;;;;;;;;;;;;;;;4.08;65.65;97078.66;4167209;28;5744;-70
2021/12/23 12:33:55;;;;;;;;;;;;;;;4.09;65.64;97070.66;4151103;28;5910;-71
2021/12/23 12:36:05;;;;;;;;;;;;;;;4.19;65.83;97085.47;4173008;28;5686;-71
2021/12/23 12:38:18;;;;;;;;;;;;;;;4.07;65.82;97075.19;4173656;28;5572;-71
2021/12/23 12:41:19;;;;;;;;;;;;;;;4.13;65.80;97075.59;4167371;28;5612;-71
2021/12/23 12:43:43;;;;;;;;;;;;;;;4.21;64.85;97078.31;4098792;28;5665;-71
2021/12/23 12:45:47;;;;;;;;;;;;;;;4.09;64.51;97069.84;4080156;29;5708;-71
2021/12/23 12:47:54;;;;;;;;;;;;;;;4.18;64.28;97070.72;4088045;29;5767;-71
2021/12/23 12:50:20;;;;;;;;;;;;;;;4.25;64.16;97059.53;4089864;29;5868;-70
2021/12/23 12:52:34;;;;;;;;;;;;;;;4.21;64.38;97057.38;4106833;28;5847;-71
2021/12/23 12:54:42;;;;;;;;;;;;;;;4.33;64.81;97057.03;4114376;28;5751;-70
2021/12/23 12:56:47;;;;;;;;;;;;;;;4.38;63.77;97060.00;4116200;28;5810;-71
2021/12/23 12:58:54;;;;;;;;;;;;;;;4.49;63.06;97060.75;4111991;28;5738;-71
2021/12/23 13:01:00;;;;;;;;;;;;;;;4.53;63.59;97054.25;4116947;28;5849;-70
2021/12/23 13:03:03;;;;;;;;;;;;;;;4.58;62.70;97055.47;4123975;28;5809;-70
2021/12/23 13:05:10;;;;;;;;;;;;;;;4.65;63.15;97043.44;4123958;28;5742;-70
2021/12/23 13:07:15;;;;;;;;;;;;;;;4.71;63.18;97041.16;4092009;28;5912;-71
2021/12/23 13:09:24;;;;;;;;;;;;;;;4.74;63.38;97053.97;4091117;28;5710;-71
2021/12/23 13:11:26;;;;;;;;;;;;;;;4.80;63.66;97042.91;4116124;28;5796;-71
2021/12/23 13:13:35;;;;;;;;;;;;;;;4.78;63.27;97045.66;4099128;28;5768;-71
2021/12/23 13:15:39;;;;;;;;;;;;;;;4.80;62.81;97035.03;4192682;28;5656;-70
2021/12/23 13:18:08;;;;;;;;;;;;;;;4.88;62.53;97037.72;4167037;28;5674;-70
2021/12/23 13:20:11;;;;;;;;;;;;;;;4.93;62.94;97041.53;4192203;28;5648;-70
2021/12/23 13:22:17;;;;;;;;;;;;;;;4.93;62.46;97038.91;4186200;28;5646;-70
2021/12/23 13:24:22;;;;;;;;;;;;;;;5.07;62.67;97036.72;4199294;28;5636;-70
2021/12/23 13:26:25;;;;;;;;;;;;;;;5.04;61.81;97026.53;4192121;28;5710;-70
2021/12/23 13:28:29;;;;;;;;;;;;;;;5.10;60.08;97029.38;4196835;28;5625;-70
2021/12/23 13:30:31;;;;;;;;;;;;;;;5.15;61.53;97031.53;4172300;28;5643;-70
2021/12/23 13:32:34;;;;;;;;;;;;;;;5.16;61.51;97034.00;4171332;28;5669;-70
2021/12/23 13:34:36;;;;;;;;;;;;;;;5.16;60.62;97028.75;4188553;28;5662;-71
2021/12/23 13:36:40;;;;;;;;;;;;;;;5.19;61.05;97031.06;4194456;28;5627;-70
2021/12/23 13:38:42;;;;;;;;;;;;;;;5.20;61.62;97032.72;4197221;28;5667;-70
2021/12/23 13:40:47;;;;;;;;;;;;;;;5.20;61.03;97035.31;4187777;28;5655;-70
2021/12/23 13:42:49;;;;;;;;;;;;;;;5.06;61.54;97028.03;4170164;28;5788;-70
2021/12/23 13:44:51;;;;;;;;;;;;;;;5.07;61.84;97024.44;4170177;28;5692;-70
2021/12/23 13:47:00;;;;;;;;;;;;;;;5.08;63.32;97022.63;4179601;28;5643;-71
2021/12/23 13:49:05;;;;;;;;;;;;;;;5.06;63.66;97014.09;4174214;28;5665;-71
2021/12/23 13:51:07;;;;;;;;;;;;;;;4.96;64.45;97022.88;4166420;28;5820;-71
2021/12/23 13:53:15;;;;;;;;;;;;;;;4.90;64.45;97013.03;4168865;28;6330;-71
2021/12/23 13:55:23;;;;;;;;;;;;;;;4.83;64.09;97000.69;4161589;28;5687;-70
2021/12/23 13:57:26;;;;;;;;;;;;;;;4.81;63.75;97002.63;4180782;28;5567;-70
2021/12/23 13:59:30;;;;;;;;;;;;;;;4.82;63.55;96996.41;4172612;28;5559;-70
2021/12/23 14:01:32;;;;;;;;;;;;;;;4.77;63.10;96989.03;4157843;28;5938;-70
2021/12/23 14:03:36;;;;;;;;;;;;;;;4.75;63.04;96987.50;4187015;28;5578;-70
2021/12/23 14:05:40;;;;;;;;;;;;;;;4.73;62.07;96989.47;4177479;28;5657;-70
2021/12/23 14:07:47;;;;;;;;;;;;;;;4.67;62.32;96998.75;4172210;28;5660;-70
2021/12/23 14:09:54;;;;;;;;;;;;;;;4.58;61.27;97003.09;4155887;28;5684;-70
2021/12/23 14:11:57;;;;;;;;;;;;;;;4.69;62.07;96996.81;4167170;28;5761;-70
2021/12/23 14:13:59;;;;;;;;;;;;;;;4.84;62.11;96997.91;4177360;28;5578;-71
2021/12/23 14:16:01;;;;;;;;;;;;;;;4.86;60.86;96988.09;4181433;28;5697;-70
2021/12/23 14:18:18;;;;;;;;;;;;;;;4.80;61.02;96977.41;4178524;28;5650;-71
2021/12/23 14:25:11;;;;;;;;;;;;;;;4.75;61.00;96971.78;4171986;28;5728;-71
2021/12/23 14:27:13;;;;;;;;;;;;;;;4.83;61.36;96959.59;4172531;28;5570;-71
2021/12/23 14:29:19;;;;;;;;;;;;;;;4.95;62.08;96962.78;4166864;28;5724;-71
2021/12/23 14:31:31;;;;;;;;;;;;;;;5.06;61.72;96959.06;4153673;28;5700;-70
2021/12/23 14:33:40;;;;;;;;;;;;;;;5.05;60.27;96950.41;4160776;28;5676;-70
2021/12/23 14:36:03;;;;;;;;;;;;;;;5.11;60.44;96944.56;4164830;28;5653;-71
2021/12/23 14:38:04;;;;;;;;;;;;;;;5.09;58.76;96937.78;4152194;28;5100;-70
2021/12/23 14:40:07;;;;;;;;;;;;;;;5.13;59.92;96939.97;4175198;28;7676;-69
2021/12/23 14:42:18;;;;;;;;;;;;;;;5.09;60.57;96938.63;4179684;28;5847;-70
2021/12/23 14:44:34;;;;;;;;;;;;;;;5.14;61.65;96941.59;4187876;28;5567;-70
2021/12/23 14:46:38;;;;;;;;;;;;;;;5.22;61.51;96944.28;4154064;28;5680;-70
2021/12/23 14:51:01;;;;;;;;;;;;;;;5.09;62.72;96937.78;4200919;28;5628;-70
2021/12/23 14:53:16;;;;;;;;;;;;;;;5.07;63.59;96937.94;4180287;28;5646;-70
2021/12/23 14:55:21;;;;;;;;;;;;;;;5.18;63.59;96937.69;4175265;28;5833;-70
2021/12/23 14:57:35;;;;;;;;;;;;;;;5.18;63.91;96929.81;4189763;28;5751;-70
2021/12/23 14:59:49;;;;;;;;;;;;;;;5.25;64.16;96930.84;4184957;28;5658;-70
2021/12/23 15:02:06;;;;;;;;;;;;;;;5.19;64.29;96933.25;4174789;28;5647;-70
2021/12/23 15:04:11;;;;;;;;;;;;;;;5.22;64.61;96939.03;4187210;28;6397;-70
2021/12/23 15:06:13;;;;;;;;;;;;;;;5.20;64.61;96934.91;4174633;28;5807;-69
2021/12/23 15:08:19;;;;;;;;;;;;;;;5.20;64.99;96933.09;4172701;28;5666;-69
2021/12/23 15:10:53;;;;;;;;;;;;;;;5.21;64.65;96926.09;4186780;28;5686;-70
2021/12/23 15:12:59;;;;;;;;;;;;;;;5.08;64.56;96925.66;4184701;28;5663;-70
2021/12/23 15:15:06;;;;;;;;;;;;;;;5.03;63.68;96918.28;4187322;28;5725;-70
2021/12/23 15:17:14;;;;;;;;;;;;;;;5.03;62.46;96922.72;4201670;28;5707;-70
2021/12/23 15:19:35;;;;;;;;;;;;;;;5.03;62.51;96918.28;4185414;28;5666;-69
2021/12/23 15:21:45;;;;;;;;;;;;;;;5.05;61.40;96913.72;4193701;28;5706;-70
2021/12/23 15:23:49;;;;;;;;;;;;;;;5.05;61.43;96911.09;4199284;28;5770;-70
2021/12/23 15:25:55;;;;;;;;;;;;;;;4.94;61.30;96914.78;4180245;28;5718;-71
2021/12/23 15:28:00;;;;;;;;;;;;;;;4.95;60.76;96915.63;4192789;28;5659;-68
2021/12/23 15:30:06;;;;;;;;;;;;;;;5.00;61.03;96913.38;4175046;28;6991;-70
2021/12/23 15:32:16;;;;;;;;;;;;;;;5.00;61.74;96909.94;4173277;28;5859;-70
2021/12/23 15:34:19;;;;;;;;;;;;;;;5.05;61.75;96916.31;4167772;28;5824;-70
2021/12/23 15:36:21;;;;;;;;;;;;;;;5.09;61.04;96922.06;4170028;28;5673;-70
2021/12/23 15:38:23;;;;;;;;;;;;;;;5.07;61.00;96914.38;4169219;28;5732;-71
2021/12/23 15:40:31;;;;;;;;;;;;;;;5.15;61.40;96906.56;4176865;28;5678;-70
2021/12/23 15:42:34;;;;;;;;;;;;;;;5.16;59.90;96910.81;4200074;28;5722;-70
2021/12/23 15:44:38;;;;;;;;;;;;;;;5.04;60.86;96912.06;4187410;28;5639;-71
2021/12/23 15:46:40;;;;;;;;;;;;;;;5.02;60.55;96906.16;4191499;28;5730;-70
2021/12/23 15:48:42;;;;;;;;;;;;;;;5.07;60.69;96898.66;4173265;28;5839;-70
2021/12/23 15:50:48;;;;;;;;;;;;;;;5.14;61.11;96897.06;4188452;28;5726;-70
2021/12/23 15:52:53;;;;;;;;;;;;;;;5.13;61.16;96903.28;4187489;28;5738;-70
2021/12/23 15:54:55;;;;;;;;;;;;;;;5.12;60.78;96896.41;4168230;28;5845;-70
2021/12/23 15:56:58;;;;;;;;;;;;;;;5.16;60.71;96902.13;4193540;28;5781;-70
2021/12/23 15:59:00;;;;;;;;;;;;;;;5.08;61.08;96896.84;4186420;28;5742;-71
2021/12/23 16:01:03;;;;;;;;;;;;;;;5.11;61.87;96902.63;4172104;28;5654;-71
2021/12/23 16:03:08;;;;;;;;;;;;;;;5.26;61.91;96898.41;4187348;28;5681;-70
2021/12/23 16:07:17;;;;;;;;;;;;;;;5.31;62.08;96902.34;4182838;28;5785;-70
2021/12/23 16:09:19;;;;;;;;;;;;;;;5.31;62.36;96904.97;4185091;28;5698;-70
2021/12/23 16:11:21;;;;;;;;;;;;;;;5.34;62.35;96902.88;4182736;28;5650;-70
2021/12/23 16:13:23;;;;;;;;;;;;;;;5.37;62.37;96904.38;4169357;28;5873;-70
2021/12/23 16:15:25;;;;;;;;;;;;;;;5.31;62.84;96915.47;4179981;28;5754;-71
2021/12/23 16:17:31;;;;;;;;;;;;;;;5.31;62.60;96925.94;4174958;28;6171;-70
2021/12/23 16:19:35;;;;;;;;;;;;;;;5.28;62.98;96916.59;4194329;28;5756;-70
2021/12/23 16:21:38;;;;;;;;;;;;;;;5.39;63.02;96918.13;4168950;28;5839;-70
2021/12/23 16:23:40;;;;;;;;;;;;;;;5.35;63.74;96927.31;4182376;28;5733;-71
2021/12/23 16:25:42;;;;;;;;;;;;;;;5.37;63.28;96925.34;4186566;28;5864;-71
2021/12/23 16:27:44;;;;;;;;;;;;;;;5.36;63.80;96928.94;4198019;28;5754;-71
2021/12/23 16:30:19;;;;;;;;;;;;;;;5.42;63.86;96923.88;4178695;28;5749;-71
2021/12/23 16:32:31;;;;;;;;;;;;;;;5.36;64.07;96935.00;4166184;28;5768;-71
2021/12/23 16:34:32;;;;;;;;;;;;;;;5.32;64.02;96928.41;4168223;28;5769;-71
2021/12/23 16:36:36;;;;;;;;;;;;;;;5.44;63.96;96932.44;4189440;28;5854;-71
2021/12/23 16:38:38;;;;;;;;;;;;;;;5.37;63.85;96925.34;4185385;28;5742;-71
2021/12/23 16:40:50;;;;;;;;;;;;;;;5.41;63.66;96924.84;4168924;28;5868;-71
2021/12/23 16:42:52;;;;;;;;;;;;;;;5.36;63.79;96918.44;4195222;28;5711;-70
2021/12/23 16:44:57;;;;;;;;;;;;;;;5.40;64.11;96930.25;4165004;28;5764;-71
2021/12/23 16:47:03;;;;;;;;;;;;;;;5.33;63.68;96924.03;4182116;28;5904;-70
2021/12/23 16:49:09;;;;;;;;;;;;;;;5.35;63.69;96922.06;4197133;28;5897;-71
2021/12/23 16:51:13;;;;;;;;;;;;;;;5.37;63.52;96923.53;4180534;28;5653;-71
2021/12/23 16:53:16;;;;;;;;;;;;;;;5.55;63.33;96926.91;4182549;28;7106;-71
2021/12/23 16:55:41;;;;;;;;;;;;;;;5.49;63.11;96935.38;4195359;28;5654;-71
2021/12/23 16:57:42;;;;;;;;;;;;;;;5.24;63.40;96929.22;4195253;28;5690;-72
2021/12/23 16:59:44;;;;;;;;;;;;;;;5.28;63.36;96928.91;4183297;28;5661;-71
2021/12/23 17:01:46;;;;;;;;;;;;;;;5.25;63.08;96933.47;4176505;28;5857;-72
2021/12/23 17:03:48;;;;;;;;;;;;;;;5.26;63.09;96932.50;4176728;28;5931;-71
2021/12/23 17:05:50;;;;;;;;;;;;;;;5.30;63.01;96929.56;4187542;28;5646;-71
2021/12/23 17:07:56;;;;;;;;;;;;;;;5.40;63.48;96930.25;4191552;28;5626;-74
2021/12/23 17:09:58;;;;;;;;;;;;;;;5.42;63.29;96944.03;4196243;28;5790;-76
2021/12/23 17:12:00;;;;;;;;;;;;;;;5.50;62.55;96936.19;4182079;28;5657;-76